Impacts TAF Board INFO
FOR SITUATIONAL AWARENESS. NOT TO BE USED FOR FLIGHT PLANNING PURPOSES.
IDs:

KMSP - Minneapolis-St Paul, MN, US

Issued at 2321 UTC 26 May 2017
Updated at 0030 UTC 27 May 2017
Potential Impact None Slight Moderate High
Time2353Z 27/01Z 27/02Z 27/03Z 27/04Z 27/05Z 27/06Z 27/07Z 27/08Z 27/09Z 27/10Z 27/11Z 27/12Z 27/13Z>>
Type OBS PRVL PRVL PRVL PRVL PRVL PRVL PRVL PRVL PRVL PRVL PRVL PRVL PRVL
VIS 10 >6 >6 >6 >6 >6 >6 >6 >6 >6 >6 >6 >6 >6
CIG -- -- -- -- -- -- -- -- -- -- -- -- 250 250
Cover SCT SCT SKC SKC SKC SKC SKC SKC SKC SKC SKC SKC BKN BKN
FltCat VFR VFR VFR VFR VFR VFR VFR VFR VFR VFR VFR VFR VFR VFR
WX -- -- -- -- -- -- -- -- -- -- -- -- -- --
WDir 280 270 270 270 270 270 270 270 270 270 270 270 250 250
WSpd 9 12 4 4 4 4 4 4 4 4 4 4 5 5
WGst -- -- -- -- -- -- -- -- -- -- -- -- -- --

Raw TAF
KMSP 262321Z 2700/2806 27012KT P6SM SCT060
  FM270130 27004KT P6SM SKC
  FM271200 25005KT P6SM SCT120 BKN250
  FM272000 25007KT P6SM SCT050 BKN100
  FM280100 19005KT P6SM BKN100


Raw METAR
KMSP 262353Z 28009KT 10SM SCT070 26/09 A2972 RMK AO2 SLP062 T02560094 10267 20222 53001
KMSP 262253Z 27014G19KT 10SM FEW050 SCT065 26/11 A2971 RMK AO2 SLP059 CB DSNT NE T02610106
KMSP 262153Z 22008KT 10SM BKN055TCU 26/12 A2972 RMK AO2 SLP059 TCU ALQDS T02560122

METAR Board
Radar Display
Forecast Discussion

FOR SITUATIONAL AWARENESS. NOT TO BE USED FOR FLIGHT PLANNING PURPOSES.

Page loaded:  00:30 UTC  |   05:30 PM Pacific  |   06:30 PM Mountain  |   07:30 PM Central  |   08:30 PM Eastern

 

ADVISORIES

FORECASTS

FORECASTS

OBSERVATIONS

USER TOOLS

ABOUT US